Time;durP1;ratioP1;P1;durP2;ratioP2;P2;SDS_P1;SDS_P2;PMS_P1;PMS_P2;Temp;Humidity;BMP_temperature;BMP_pressure;BME280_temperature;BME280_humidity;BME280_pressure;Samples;Min_cycle;Max_cycle;Signal;HPM_P1;HPM_P2
2022/01/12 00:00:51;;;;;;;19.27;9.27;;;;;;;1.95;79.75;103465.88;5075707;28;20031;-91
2022/01/12 00:03:16;;;;;;;19.17;9.10;;;;;;;1.95;79.52;103479.59;5081381;28;20040;-90
2022/01/12 00:05:42;;;;;;;23.00;10.23;;;;;;;1.99;79.16;103490.03;5083932;28;20032;-91
2022/01/12 00:08:08;;;;;;;18.63;9.50;;;;;;;2.00;79.53;103487.53;5060012;28;20028;-90
2022/01/12 00:10:33;;;;;;;19.37;9.57;;;;;;;2.03;78.52;103486.81;5080528;28;20028;-91
2022/01/12 00:12:59;;;;;;;16.67;8.83;;;;;;;2.06;78.99;103497.22;5077081;28;20032;-90
2022/01/12 00:15:24;;;;;;;19.70;9.60;;;;;;;2.09;78.53;103502.53;5077949;28;20032;-90
2022/01/12 00:17:50;;;;;;;18.93;9.20;;;;;;;2.12;78.69;103512.97;5066948;28;20035;-91
2022/01/12 00:20:15;;;;;;;22.13;9.67;;;;;;;2.16;78.43;103516.56;5086391;28;20067;-90
2022/01/12 00:22:41;;;;;;;15.53;9.30;;;;;;;2.20;78.46;103505.66;5080760;28;20036;-90
2022/01/12 00:35:34;;;;;;;15.83;8.50;;;;;;;2.28;78.06;103514.69;5080477;28;20110;-91
2022/01/12 00:38:00;;;;;;;17.87;8.77;;;;;;;2.28;77.69;103510.41;5059608;28;20063;-91
2022/01/12 00:40:25;;;;;;;16.90;8.63;;;;;;;2.28;77.77;103520.69;5061624;28;20113;-91
2022/01/12 00:42:52;;;;;;;18.47;9.27;;;;;;;2.29;77.91;103524.16;5078006;28;21003;-91
2022/01/12 00:45:18;;;;;;;18.40;9.63;;;;;;;2.30;77.57;103525.91;5078949;28;20063;-90
2022/01/12 00:47:43;;;;;;;21.73;9.40;;;;;;;2.32;77.92;103532.00;5055193;28;20041;-91
2022/01/12 00:50:09;;;;;;;18.33;9.03;;;;;;;2.34;77.82;103534.66;5063088;28;20479;-90
2022/01/12 00:52:34;;;;;;;17.57;8.87;;;;;;;2.36;78.37;103538.19;5064301;28;20020;-91
2022/01/12 00:54:59;;;;;;;20.07;9.57;;;;;;;2.37;78.10;103545.09;5057436;28;20379;-91
2022/01/12 00:57:25;;;;;;;16.87;9.70;;;;;;;2.38;78.29;103542.59;5052565;28;20036;-91
2022/01/12 00:59:50;;;;;;;24.63;10.80;;;;;;;2.39;78.76;103543.50;5054635;28;20425;-90
2022/01/12 01:02:15;;;;;;;21.67;9.97;;;;;;;2.40;78.47;103552.94;5053862;28;20028;-90
2022/01/12 01:04:40;;;;;;;18.57;9.57;;;;;;;2.37;78.82;103550.22;5059945;28;20029;-91
2022/01/12 01:07:06;;;;;;;19.80;9.97;;;;;;;2.37;79.02;103555.38;5062718;28;20024;-90
2022/01/12 01:09:34;;;;;;;20.63;10.17;;;;;;;2.36;79.47;103559.63;5054756;28;20025;-91
2022/01/12 01:12:00;;;;;;;21.77;10.67;;;;;;;2.34;80.03;103562.91;5059548;28;20166;-91
2022/01/12 01:14:47;;;;;;;20.53;10.33;;;;;;;2.31;80.23;103565.31;5072719;28;20012;-90
2022/01/12 01:25:32;;;;;;;19.17;9.87;;;;;;;2.17;81.66;103533.75;5054604;28;20071;-90
2022/01/12 01:27:59;;;;;;;25.03;10.53;;;;;;;2.10;81.87;103529.97;5058108;28;20081;-91
2022/01/12 01:30:24;;;;;;;20.67;10.23;;;;;;;2.05;82.44;103534.88;5060916;28;20055;-91
2022/01/12 01:32:50;;;;;;;22.87;11.17;;;;;;;2.03;82.41;103543.31;5057213;28;20114;-91
2022/01/12 01:35:15;;;;;;;21.80;10.57;;;;;;;1.99;83.05;103551.66;5062866;28;20029;-91
2022/01/12 01:37:41;;;;;;;20.57;11.30;;;;;;;1.96;83.08;103553.25;5051357;28;20025;-92
2022/01/12 01:40:11;;;;;;;24.30;11.43;;;;;;;1.95;83.17;103551.47;5058235;28;20074;-91
2022/01/12 01:42:55;;;;;;;20.43;10.40;;;;;;;1.95;83.06;103559.19;5056282;28;20021;-91
2022/01/12 01:53:38;;;;;;;21.77;11.20;;;;;;;1.91;83.30;103564.94;5058089;28;20039;-91
2022/01/12 01:56:04;;;;;;;20.07;10.93;;;;;;;1.89;83.42;103553.69;5041015;28;20025;-92
2022/01/12 01:58:29;;;;;;;25.23;11.07;;;;;;;1.89;83.44;103538.31;5034555;28;20024;-91
2022/01/12 02:00:54;;;;;;;21.50;11.47;;;;;;;1.84;83.42;103534.63;5054879;28;20051;-91
2022/01/12 02:03:20;;;;;;;25.00;11.33;;;;;;;1.81;83.72;103534.44;5038530;28;20027;-91
2022/01/12 02:05:46;;;;;;;23.17;12.17;;;;;;;1.80;83.82;103535.25;5040988;28;20016;-91
2022/01/12 02:08:12;;;;;;;23.63;11.80;;;;;;;1.77;84.13;103538.53;5056596;28;20024;-91
2022/01/12 02:10:37;;;;;;;24.47;11.83;;;;;;;1.77;83.94;103527.38;5056846;28;20036;-90
2022/01/12 02:13:04;;;;;;;24.80;11.67;;;;;;;1.74;84.20;103524.63;5058710;28;20024;-91
2022/01/12 02:15:29;;;;;;;23.83;12.27;;;;;;;1.71;84.18;103524.50;5040173;28;20128;-91
2022/01/12 02:35:20;;;;;;;29.27;13.13;;;;;;;1.72;84.60;103551.91;5059811;28;20498;-90
2022/01/12 02:40:28;;;;;;;26.27;13.00;;;;;;;1.73;84.67;103559.69;5059386;28;20028;-91
2022/01/12 02:43:07;;;;;;;23.17;12.20;;;;;;;1.75;84.74;103558.09;5059439;28;20473;-91
2022/01/12 02:53:39;;;;;;;24.10;12.40;;;;;;;1.77;84.73;103565.88;5060369;28;20032;-91
2022/01/12 02:56:06;;;;;;;23.73;12.97;;;;;;;1.78;84.52;103571.13;5058367;28;20083;-90
2022/01/12 02:58:32;;;;;;;26.90;13.33;;;;;;;1.78;84.46;103567.66;5052786;28;20078;-90
2022/01/12 03:03:45;;;;;;;24.83;13.07;;;;;;;1.80;84.66;103582.31;5058302;28;20033;-91
2022/01/12 03:06:15;;;;;;;28.17;13.50;;;;;;;1.81;84.81;103583.22;5037186;28;20021;-91
2022/01/12 03:08:40;;;;;;;28.00;12.93;;;;;;;1.82;84.46;103592.69;5057388;28;20119;-90
2022/01/12 03:11:08;;;;;;;28.93;13.37;;;;;;;1.82;84.74;103590.13;5053811;28;20025;-91
2022/01/12 03:13:34;;;;;;;28.97;13.80;;;;;;;1.85;84.81;103605.69;5052645;28;20033;-91
2022/01/12 03:16:00;;;;;;;29.77;13.37;;;;;;;1.87;85.08;103598.97;5054498;28;20031;-91
2022/01/12 03:18:26;;;;;;;26.33;13.53;;;;;;;1.90;84.59;103611.94;5057237;28;20020;-91
2022/01/12 03:20:51;;;;;;;27.00;13.23;;;;;;;1.91;85.11;103608.59;5041698;28;20380;-91
2022/01/12 03:23:17;;;;;;;23.50;12.80;;;;;;;1.92;84.51;103612.91;5059683;28;20056;-91
2022/01/12 03:25:43;;;;;;;29.50;13.67;;;;;;;1.94;85.09;103610.47;5057410;28;20029;-91
2022/01/12 03:28:08;;;;;;;30.23;14.50;;;;;;;1.97;84.93;103606.38;5054343;28;20365;-91
2022/01/12 03:30:52;;;;;;;32.73;15.10;;;;;;;1.97;84.68;103616.63;5036659;28;20131;-90
2022/01/12 03:38:48;;;;;;;24.03;13.17;;;;;;;2.02;84.92;103616.00;5066629;28;20427;-90
2022/01/12 03:41:14;;;;;;;26.30;13.20;;;;;;;2.02;84.92;103606.63;5058437;28;20032;-90
2022/01/12 03:43:39;;;;;;;28.37;13.40;;;;;;;2.02;84.69;103608.31;5042958;28;20021;-92
2022/01/12 03:46:05;;;;;;;24.80;13.77;;;;;;;2.01;84.88;103606.53;5059661;28;20040;-90
2022/01/12 03:48:30;;;;;;;26.13;13.10;;;;;;;2.03;84.81;103615.22;5056463;28;20045;-90
2022/01/12 03:50:56;;;;;;;29.57;13.70;;;;;;;2.04;84.56;103612.72;5060445;28;20031;-91
2022/01/12 03:53:22;;;;;;;28.50;13.60;;;;;;;2.04;84.95;103612.72;5063521;28;20470;-90
2022/01/12 03:55:48;;;;;;;31.27;14.10;;;;;;;2.04;84.93;103615.28;5055821;28;20044;-90
2022/01/12 03:58:13;;;;;;;28.27;13.23;;;;;;;2.06;85.39;103616.25;5061469;28;20410;-91
2022/01/12 04:00:38;;;;;;;23.33;12.93;;;;;;;2.07;84.95;103622.25;5059098;28;20036;-91
2022/01/12 04:03:06;;;;;;;26.70;14.03;;;;;;;2.08;84.62;103624.03;5061737;28;20087;-91
2022/01/12 04:08:20;;;;;;;30.10;14.18;;;;;;;2.02;84.88;103632.28;5058319;28;20045;-92
2022/01/12 04:11:06;;;;;;;30.13;14.27;;;;;;;2.01;84.93;103637.34;5060246;28;20045;-90
2022/01/12 04:13:32;;;;;;;26.87;13.90;;;;;;;1.97;85.13;103639.75;5059162;28;20043;-91
2022/01/12 04:16:03;;;;;;;31.93;14.10;;;;;;;1.97;85.38;103642.31;5057513;28;20103;-91
2022/01/12 04:18:29;;;;;;;28.45;14.02;;;;;;;1.99;85.34;103638.94;5062811;28;20025;-91
2022/01/12 04:20:54;;;;;;;29.77;13.90;;;;;;;2.00;85.26;103635.59;5054808;28;20120;-91
2022/01/12 04:23:22;;;;;;;33.20;14.00;;;;;;;2.00;85.45;103635.59;5059406;28;20028;-92
2022/01/12 04:25:51;;;;;;;32.50;14.67;;;;;;;2.01;85.61;103642.50;5061627;28;20395;-92
2022/01/12 04:28:19;;;;;;;31.47;14.90;;;;;;;2.01;85.47;103638.22;5062470;28;20021;-90
2022/01/12 04:30:45;;;;;;;28.83;14.97;;;;;;;2.02;85.73;103636.56;5055527;28;20032;-91
2022/01/12 04:33:12;;;;;;;27.53;14.57;;;;;;;2.03;85.73;103638.31;5061620;28;20028;-91
2022/01/12 04:35:45;;;;;;;33.23;15.93;;;;;;;2.04;85.55;103634.97;5055823;28;20024;-91
2022/01/12 04:38:11;;;;;;;32.63;15.77;;;;;;;2.03;85.59;103628.91;5053710;28;20039;-92
2022/01/12 04:40:36;;;;;;;33.30;16.17;;;;;;;2.01;85.63;103624.50;5061668;28;20107;-90
2022/01/12 04:43:01;;;;;;;34.93;15.97;;;;;;;1.99;85.76;103620.97;5059166;28;20437;-91
2022/01/12 04:45:40;;;;;;;33.67;15.90;;;;;;;2.00;85.69;103630.44;5059491;28;20032;-91
2022/01/12 04:50:37;;;;;;;35.90;15.60;;;;;;;2.00;85.84;103612.47;5076972;28;20213;-89
2022/01/12 04:53:04;;;;;;;34.57;16.27;;;;;;;1.97;85.91;103611.50;5046164;28;20021;-90
2022/01/12 04:55:29;;;;;;;35.67;16.37;;;;;;;1.96;85.78;103614.00;5056956;28;20021;-89
2022/01/12 04:57:54;;;;;;;35.97;16.53;;;;;;;1.93;85.75;103608.69;5061857;28;20051;-92
2022/01/12 05:00:21;;;;;;;37.73;16.47;;;;;;;1.94;86.45;103605.31;5056641;28;20024;-91
2022/01/12 05:08:35;;;;;;;35.20;16.17;;;;;;;1.96;85.89;103614.00;5061910;28;20110;-91
2022/01/12 05:13:48;;;;;;;34.70;16.50;;;;;;;1.96;86.00;103619.13;5060610;28;20035;-90
2022/01/12 05:16:14;;;;;;;40.07;16.37;;;;;;;1.97;86.11;103624.34;5039749;28;20033;-91
2022/01/12 05:18:41;;;;;;;39.67;16.97;;;;;;;1.97;85.83;103621.78;5042871;28;20035;-90
2022/01/12 05:21:07;;;;;;;39.03;16.63;;;;;;;1.99;85.95;103626.09;5063221;28;20122;-91
2022/01/12 05:23:34;;;;;;;37.07;16.93;;;;;;;1.97;85.91;103626.91;5043878;28;20104;-90
2022/01/12 05:26:00;;;;;;;40.03;17.27;;;;;;;1.96;85.87;103622.56;5064116;28;20097;-91
2022/01/12 05:28:27;;;;;;;36.90;16.60;;;;;;;1.97;85.91;103637.19;5046481;28;20106;-91
2022/01/12 05:30:54;;;;;;;37.33;16.97;;;;;;;1.99;85.98;103631.25;5058480;28;20055;-92
2022/01/12 05:33:22;;;;;;;36.90;16.57;;;;;;;2.00;85.88;103640.72;5062620;28;20039;-91
2022/01/12 05:35:47;;;;;;;33.07;16.60;;;;;;;2.00;86.17;103630.44;5062600;28;20082;-92
2022/01/12 05:38:14;;;;;;;37.73;16.50;;;;;;;1.99;86.14;103628.69;5041899;28;20033;-91
2022/01/12 05:40:41;;;;;;;38.03;16.87;;;;;;;1.99;85.94;103636.38;5056732;28;20092;-90
2022/01/12 05:43:07;;;;;;;34.00;16.57;;;;;;;2.00;86.09;103651.00;5059120;28;20024;-90
2022/01/12 05:45:34;;;;;;;38.17;17.13;;;;;;;1.99;86.02;103644.09;5065658;28;20020;-91
2022/01/12 05:50:28;;;;;;;36.23;17.47;;;;;;;2.01;86.06;103648.50;5059827;28;20114;-90
2022/01/12 05:52:54;;;;;;;38.93;17.00;;;;;;;2.02;86.25;103644.25;5064368;28;20052;-91
2022/01/12 05:55:19;;;;;;;40.00;18.03;;;;;;;2.03;86.10;103648.59;5057299;28;20468;-91
2022/01/12 05:57:45;;;;;;;39.73;17.23;;;;;;;2.03;86.20;103643.47;5061335;28;20031;-91
2022/01/12 06:00:16;;;;;;;42.00;17.20;;;;;;;2.02;86.34;103646.81;5060847;28;20479;-90
2022/01/12 06:02:41;;;;;;;36.63;17.03;;;;;;;2.00;86.18;103636.44;5057103;28;20036;-90
2022/01/12 06:05:08;;;;;;;40.87;18.03;;;;;;;2.00;86.19;103638.16;5061231;28;20025;-90
2022/01/12 06:07:33;;;;;;;40.97;17.67;;;;;;;1.99;86.23;103641.50;5043596;28;20025;-89
2022/01/12 06:09:59;;;;;;;41.73;17.83;;;;;;;1.96;86.39;103645.69;5059639;28;20400;-91
2022/01/12 06:12:24;;;;;;;37.93;16.77;;;;;;;1.96;86.51;103648.25;5041388;28;20044;-90
2022/01/12 06:14:49;;;;;;;40.60;17.63;;;;;;;1.97;86.56;103657.72;5055557;28;20050;-90
2022/01/12 06:17:15;;;;;;;40.47;18.97;;;;;;;1.97;86.38;103650.00;5050477;28;20414;-90
2022/01/12 06:19:40;;;;;;;38.87;17.03;;;;;;;1.97;86.76;103657.72;5036462;28;20024;-90
2022/01/12 06:22:06;;;;;;;41.13;17.60;;;;;;;1.97;86.53;103660.28;5040145;28;20158;-90
2022/01/12 06:24:32;;;;;;;40.77;17.00;;;;;;;1.99;86.86;103667.19;5051362;28;20036;-90
2022/01/12 06:26:58;;;;;;;38.27;17.43;;;;;;;2.01;86.71;103673.31;5055733;28;20111;-90
2022/01/12 06:32:06;;;;;;;42.03;18.07;;;;;;;2.03;86.88;103681.97;5054169;28;20475;-90
2022/01/12 06:34:31;;;;;;;40.60;18.13;;;;;;;2.02;86.92;103690.47;5057665;28;20071;-90
2022/01/12 06:36:56;;;;;;;39.37;17.60;;;;;;;2.03;87.45;103692.25;5043182;28;20053;-90
2022/01/12 06:39:23;;;;;;;38.23;18.70;;;;;;;2.04;86.87;103694.03;5062186;28;20103;-91
2022/01/12 06:41:50;;;;;;;37.23;18.27;;;;;;;2.05;87.20;103700.94;5055772;28;20024;-90
2022/01/12 06:44:17;;;;;;;38.30;18.27;;;;;;;2.07;87.24;103713.03;5054900;28;20083;-90
2022/01/12 06:46:44;;;;;;;40.97;18.37;;;;;;;2.05;86.73;103717.19;5078352;28;20009;-89
2022/01/12 06:49:11;;;;;;;38.80;17.50;;;;;;;2.05;86.64;103722.34;5063622;28;20063;-90
2022/01/12 06:51:38;;;;;;;38.30;17.97;;;;;;;2.02;86.89;103716.16;5055263;28;20021;-90
2022/01/12 06:54:04;;;;;;;39.80;17.70;;;;;;;2.02;87.00;103713.59;5056978;28;20119;-90
2022/01/12 06:56:29;;;;;;;40.93;18.37;;;;;;;2.01;87.13;103715.25;5058925;28;20111;-90
2022/01/12 06:58:54;;;;;;;40.30;18.70;;;;;;;2.02;87.15;103716.16;5052150;28;20036;-90
2022/01/12 07:01:21;;;;;;;38.73;18.87;;;;;;;2.02;87.15;103718.72;5051036;28;20460;-90
2022/01/12 07:03:46;;;;;;;38.53;18.10;;;;;;;2.04;87.27;103719.69;5051129;28;20028;-90
2022/01/12 07:06:11;;;;;;;41.97;19.07;;;;;;;2.06;87.23;103721.53;5053033;28;20372;-90
2022/01/12 07:08:36;;;;;;;42.73;19.00;;;;;;;2.07;87.17;103722.41;5038386;28;20480;-90
2022/01/12 07:11:03;;;;;;;40.67;19.10;;;;;;;2.07;87.01;103735.25;5041046;28;20035;-90
2022/01/12 07:13:28;;;;;;;42.50;19.03;;;;;;;2.06;87.31;103743.75;5054521;28;20039;-90
2022/01/12 07:15:54;;;;;;;39.83;19.53;;;;;;;2.06;87.32;103746.31;5049754;28;20103;-90
2022/01/12 07:18:21;;;;;;;38.10;19.00;;;;;;;2.07;87.39;103736.16;5056223;28;20028;-90
2022/01/12 07:20:47;;;;;;;43.20;19.50;;;;;;;2.09;87.59;103731.09;5035379;28;20108;-90
2022/01/12 07:23:12;;;;;;;41.43;20.00;;;;;;;2.10;87.73;103730.28;5054961;28;20056;-90
2022/01/12 07:25:38;;;;;;;42.77;19.43;;;;;;;2.10;87.50;103744.03;5057221;28;20028;-89
2022/01/12 07:28:03;;;;;;;41.17;19.10;;;;;;;2.10;87.28;103741.47;5054580;28;20033;-90
2022/01/12 07:30:29;;;;;;;45.63;19.83;;;;;;;2.12;87.42;103746.69;5061703;28;20123;-90
2022/01/12 07:32:54;;;;;;;42.00;19.13;;;;;;;2.13;87.42;103751.03;5059855;28;20040;-90
2022/01/12 07:35:19;;;;;;;44.30;20.23;;;;;;;2.14;87.45;103755.34;5054352;28;20025;-90
2022/01/12 07:37:46;;;;;;;42.40;19.87;;;;;;;2.13;87.34;103766.44;5033837;28;20021;-90
2022/01/12 07:40:12;;;;;;;42.30;19.27;;;;;;;2.12;87.23;103777.50;5049336;28;20406;-91
2022/01/12 07:42:37;;;;;;;41.83;18.70;;;;;;;2.09;87.17;103785.03;5044675;28;20033;-93
2022/01/12 07:45:03;;;;;;;44.30;19.17;;;;;;;2.07;87.24;103776.34;5043716;28;20033;-90
2022/01/12 07:47:29;;;;;;;39.53;17.90;;;;;;;2.09;87.53;103785.03;5047834;28;20049;-91
2022/01/12 07:49:56;;;;;;;41.30;18.40;;;;;;;2.08;87.36;103780.69;5046749;28;20105;-90
2022/01/12 07:52:22;;;;;;;40.63;19.47;;;;;;;2.10;87.57;103781.66;5044533;28;20033;-91
2022/01/12 07:54:47;;;;;;;39.50;19.37;;;;;;;2.11;87.68;103783.44;5029319;28;20378;-93
2022/01/12 07:57:12;;;;;;;45.53;19.23;;;;;;;2.14;87.75;103788.75;5030470;28;20108;-91
2022/01/12 07:59:38;;;;;;;47.17;19.67;;;;;;;2.15;87.60;103795.66;5048410;28;20059;-91
2022/01/12 08:02:03;;;;;;;46.03;20.43;;;;;;;2.17;87.53;103793.16;5027805;28;20476;-89
2022/01/12 08:04:28;;;;;;;41.97;19.50;;;;;;;2.17;87.63;103804.34;5043633;28;20064;-89
2022/01/12 08:06:54;;;;;;;45.53;19.13;;;;;;;2.18;87.63;103811.25;5027032;28;20036;-90
2022/01/12 08:09:19;;;;;;;44.70;19.93;;;;;;;2.19;87.51;103813.03;5046655;28;20043;-91
2022/01/12 08:11:44;;;;;;;39.73;19.30;;;;;;;2.18;87.37;103818.97;5031224;28;20575;-93
2022/01/12 08:14:09;;;;;;;45.53;20.37;;;;;;;2.19;87.29;103825.88;5049292;28;20060;-89
2022/01/12 08:16:35;;;;;;;46.70;20.03;;;;;;;2.17;87.17;103832.59;5043731;28;20475;-89
2022/01/12 08:19:00;;;;;;;48.07;20.50;;;;;;;2.15;87.83;103836.75;5045324;28;20224;-89
2022/01/12 08:21:27;;;;;;;44.13;19.93;;;;;;;2.16;87.69;103833.38;5044162;28;20040;-88
2022/01/12 08:23:53;;;;;;;48.50;20.87;;;;;;;2.17;87.76;103835.16;5048351;28;20123;-90
2022/01/12 08:26:18;;;;;;;46.50;20.00;;;;;;;2.20;88.04;103835.34;5047647;28;20469;-90
2022/01/12 08:28:43;;;;;;;44.10;20.13;;;;;;;2.22;88.03;103838.84;5030997;28;20153;-88
2022/01/12 08:31:09;;;;;;;48.43;21.17;;;;;;;2.26;88.12;103834.81;5030133;28;20115;-89
2022/01/12 08:33:34;;;;;;;46.63;20.33;;;;;;;2.27;88.22;103847.72;5047846;28;20676;-90
2022/01/12 08:35:59;;;;;;;51.27;21.43;;;;;;;2.28;87.96;103844.34;5032557;28;20760;-91
2022/01/12 08:38:25;;;;;;;47.97;20.83;;;;;;;2.32;88.26;103847.09;5037329;28;20032;-91
2022/01/12 08:40:50;;;;;;;50.53;20.83;;;;;;;2.33;88.21;103842.03;5046662;28;20025;-89
2022/01/12 08:43:15;;;;;;;51.20;23.03;;;;;;;2.35;88.14;103839.59;5048702;28;20115;-88
2022/01/12 08:45:41;;;;;;;49.10;21.67;;;;;;;2.36;88.31;103842.22;5046319;28;20037;-87
2022/01/12 08:48:06;;;;;;;49.63;21.20;;;;;;;2.38;88.15;103834.63;5037933;28;20056;-92
2022/01/12 08:50:31;;;;;;;51.17;21.03;;;;;;;2.39;88.23;103841.53;5047468;28;20037;-91
2022/01/12 08:52:57;;;;;;;49.73;20.50;;;;;;;2.40;88.35;103844.19;5055235;28;20023;-92
2022/01/12 08:55:23;;;;;;;51.70;21.23;;;;;;;2.44;88.56;103845.22;5070383;28;20052;-91
2022/01/12 08:57:50;;;;;;;55.67;21.23;;;;;;;2.48;88.36;103852.31;5070607;28;20077;-89
2022/01/12 09:00:16;;;;;;;51.57;21.57;;;;;;;2.50;88.45;103848.16;5050077;28;20828;-90
2022/01/12 09:02:42;;;;;;;54.40;21.20;;;;;;;2.53;88.62;103848.34;5053347;28;20400;-92
2022/01/12 09:05:10;;;;;;;47.80;20.30;;;;;;;2.57;88.56;103841.69;5053035;28;20047;-90
2022/01/12 09:07:35;;;;;;;44.73;19.80;;;;;;;2.61;88.53;103847.88;5048219;28;20029;-88
2022/01/12 09:10:01;;;;;;;49.33;19.23;;;;;;;2.64;88.35;103859.22;5049069;28;20390;-90
2022/01/12 09:12:27;;;;;;;47.63;18.23;;;;;;;2.65;88.76;103860.09;5049999;28;20041;-90
2022/01/12 09:14:53;;;;;;;42.57;17.10;;;;;;;2.66;88.33;103861.88;5047978;28;20033;-89
2022/01/12 09:17:19;;;;;;;42.83;18.20;;;;;;;2.69;88.37;103869.75;5046886;28;20057;-90
2022/01/12 09:19:46;;;;;;;48.40;18.97;;;;;;;2.71;88.43;103875.88;5053830;28;20039;-94
2022/01/12 09:22:12;;;;;;;50.63;19.83;;;;;;;2.73;88.21;103876.84;5047578;28;20029;-89
2022/01/12 09:24:37;;;;;;;40.10;16.37;;;;;;;2.73;87.93;103882.00;5046389;28;20029;-89
2022/01/12 09:27:03;;;;;;;43.20;16.40;;;;;;;2.71;88.24;103881.03;5044571;28;20039;-90
2022/01/12 09:29:28;;;;;;;47.70;19.60;;;;;;;2.73;88.67;103885.44;5045642;28;20041;-90
2022/01/12 09:31:54;;;;;;;43.97;16.10;;;;;;;2.74;88.40;103899.16;5046460;28;20032;-90
2022/01/12 09:34:19;;;;;;;41.10;15.43;;;;;;;2.73;88.02;103897.41;5041088;28;20052;-89
2022/01/12 09:36:45;;;;;;;47.10;16.17;;;;;;;2.71;88.25;103904.16;5048937;28;20127;-88
2022/01/12 09:39:10;;;;;;;37.57;16.40;;;;;;;2.70;88.26;103905.81;5045578;28;20059;-89
2022/01/12 09:41:36;;;;;;;38.50;14.33;;;;;;;2.70;88.29;103904.94;5045942;28;20115;-88
2022/01/12 09:44:02;;;;;;;32.23;15.67;;;;;;;2.68;88.14;103904.84;5046453;28;20048;-91
2022/01/12 09:46:27;;;;;;;34.33;14.57;;;;;;;2.69;88.30;103908.31;5046660;28;20024;-88
2022/01/12 09:48:54;;;;;;;45.90;14.60;;;;;;;2.70;88.59;103921.25;5046890;28;20069;-94
2022/01/12 09:51:21;;;;;;;34.93;15.57;;;;;;;2.69;88.90;103919.47;5045843;28;20040;-88
2022/01/12 09:53:46;;;;;;;40.63;14.37;;;;;;;2.69;88.73;103918.59;5043350;28;20128;-88
2022/01/12 09:56:23;;;;;;;39.53;14.50;;;;;;;2.64;88.67;103922.59;5027660;28;20124;-88
2022/01/12 09:58:51;;;;;;;43.07;15.73;;;;;;;2.62;88.53;103937.03;5044658;28;20589;-90
2022/01/12 10:01:31;;;;;;;33.83;14.73;;;;;;;2.61;88.82;103936.16;5048255;28;20067;-89
2022/01/12 10:04:10;;;;;;;28.57;13.63;;;;;;;2.63;88.81;103943.94;5046302;28;20036;-90
2022/01/12 10:06:40;;;;;;;48.50;13.73;;;;;;;2.64;88.39;103940.56;5044434;28;20051;-89
2022/01/12 10:09:06;;;;;;;28.33;13.50;;;;;;;2.64;88.83;103940.56;5045402;28;20029;-90
2022/01/12 10:11:31;;;;;;;41.17;14.33;;;;;;;2.64;88.76;103940.56;5039984;28;20036;-89
2022/01/12 10:13:58;;;;;;;32.13;13.73;;;;;;;2.65;89.02;103942.34;5043188;28;20037;-89
2022/01/12 10:16:26;;;;;;;49.03;14.03;;;;;;;2.64;88.48;103944.06;5043585;28;20032;-92
2022/01/12 10:18:54;;;;;;;78.70;14.93;;;;;;;2.60;88.37;103948.91;5044704;28;20033;-89
2022/01/12 10:21:30;;;;;;;33.20;14.13;;;;;;;2.57;88.81;103939.34;5037866;28;20037;-90
2022/01/12 10:24:05;;;;;;;56.00;14.03;;;;;;;2.55;88.88;103936.69;5015441;28;20029;-91
2022/01/12 10:26:37;;;;;;;58.87;13.73;;;;;;;2.55;88.97;103933.22;5020891;28;20350;-88
2022/01/12 10:29:13;;;;;;;40.27;13.40;;;;;;;2.52;89.10;103936.50;5042418;28;20098;-88
2022/01/12 10:31:57;;;;;;;40.90;13.23;;;;;;;2.51;88.74;103937.31;5046159;28;20080;-88
2022/01/12 10:34:26;;;;;;;59.13;13.57;;;;;;;2.51;88.98;103938.97;5025932;28;20396;-88
2022/01/12 10:36:54;;;;;;;32.67;13.30;;;;;;;2.55;89.04;103940.94;5045542;28;20484;-90
2022/01/12 10:39:22;;;;;;;34.23;12.53;;;;;;;2.57;89.50;103940.22;5028574;28;20037;-90
2022/01/12 10:42:08;;;;;;;45.53;13.53;;;;;;;2.57;89.24;103940.22;5045034;28;20048;-89
2022/01/12 10:44:37;;;;;;;29.03;13.70;;;;;;;2.62;89.43;103943.06;5039720;28;20064;-90
2022/01/12 10:47:20;;;;;;;43.60;12.97;;;;;;;2.65;89.22;103945.78;5027153;28;20053;-89
2022/01/12 10:49:54;;;;;;;39.60;11.53;;;;;;;2.64;89.36;103944.06;5043685;28;20044;-88
2022/01/12 10:52:21;;;;;;;33.37;11.70;;;;;;;2.64;89.15;103945.72;5044167;28;20044;-88
2022/01/12 10:54:49;;;;;;;30.67;11.50;;;;;;;2.64;89.17;103940.56;5047095;28;20033;-90
2022/01/12 10:57:30;;;;;;;54.90;12.33;;;;;;;2.68;88.96;103947.69;5045733;28;20361;-88
2022/01/12 11:00:26;;;;;;;30.50;11.73;;;;;;;2.71;89.25;103947.84;5026452;28;20124;-91
2022/01/12 11:03:00;;;;;;;44.87;12.00;;;;;;;2.73;89.06;103948.84;5026069;28;20036;-90
2022/01/12 11:05:31;;;;;;;32.23;12.17;;;;;;;2.73;89.22;103952.28;5045203;28;20078;-89
2022/01/12 11:07:57;;;;;;;50.20;13.17;;;;;;;2.77;89.31;103937.91;5044748;28;20032;-91
2022/01/12 11:10:23;;;;;;;33.63;11.97;;;;;;;2.78;89.13;103933.66;5045592;28;20322;-89
2022/01/12 11:12:50;;;;;;;40.97;13.30;;;;;;;2.79;88.79;103935.44;5028085;28;20369;-90
2022/01/12 11:15:17;;;;;;;37.13;12.43;;;;;;;2.79;88.52;103938.88;5045842;28;20036;-89
2022/01/12 11:17:45;;;;;;;33.50;13.23;;;;;;;2.79;88.73;103936.31;5044420;28;20047;-91
2022/01/12 11:20:17;;;;;;;32.03;11.83;;;;;;;2.80;88.93;103930.38;5046270;28;20021;-91
2022/01/12 11:23:00;;;;;;;30.63;12.40;;;;;;;2.81;88.95;103939.84;5044347;28;20290;-90
2022/01/12 11:25:38;;;;;;;30.50;12.30;;;;;;;2.80;88.66;103962.94;5044064;28;20141;-88
2022/01/12 11:28:12;;;;;;;30.23;11.13;;;;;;;2.79;88.23;103961.16;5044419;28;20099;-91
2022/01/12 11:30:40;;;;;;;27.87;10.90;;;;;;;2.77;88.30;103963.63;5043301;28;20036;-89
2022/01/12 11:33:09;;;;;;;37.23;11.53;;;;;;;2.78;88.48;103967.97;5044277;28;20028;-89
2022/01/12 11:35:38;;;;;;;35.53;12.60;;;;;;;2.78;87.92;103959.38;5027239;28;20087;-92
2022/01/12 11:38:05;;;;;;;31.67;13.20;;;;;;;2.80;88.05;103963.78;5025821;28;20024;-89
2022/01/12 11:40:33;;;;;;;34.33;12.50;;;;;;;2.83;88.60;103953.69;5045463;28;20091;-89
2022/01/12 11:42:59;;;;;;;36.13;13.33;;;;;;;2.86;88.18;103953.88;5045356;28;20033;-89
2022/01/12 11:45:24;;;;;;;35.10;13.17;;;;;;;2.91;88.36;103950.66;5027610;28;20031;-91
2022/01/12 11:47:51;;;;;;;40.70;13.97;;;;;;;2.93;88.25;103938.78;5046736;28;20055;-88
2022/01/12 11:50:16;;;;;;;34.60;13.00;;;;;;;2.95;88.14;103929.47;5045122;28;20037;-91
2022/01/12 11:52:41;;;;;;;36.83;13.57;;;;;;;2.96;87.67;103937.28;5042698;28;20102;-90
2022/01/12 11:55:13;;;;;;;39.63;13.87;;;;;;;2.98;87.84;103916.78;5044975;28;20694;-88
2022/01/12 11:57:41;;;;;;;34.83;13.77;;;;;;;3.01;88.49;103927.25;5047503;28;20776;-89
2022/01/12 12:00:20;;;;;;;36.10;13.80;;;;;;;3.04;87.75;103935.13;5027257;28;20569;-91
2022/01/12 12:02:49;;;;;;;34.37;12.13;;;;;;;3.03;87.53;103938.50;5044111;28;20492;-92
2022/01/12 12:05:17;;;;;;;35.67;12.53;;;;;;;3.03;87.48;103936.81;5051138;28;20545;-91
2022/01/12 12:07:48;;;;;;;36.47;13.03;;;;;;;3.02;87.35;103944.44;5048998;28;20037;-89
2022/01/12 12:10:16;;;;;;;29.38;12.38;;;;;;;3.06;87.44;103948.06;5050382;28;20056;-90
2022/01/12 12:12:42;;;;;;;34.67;12.43;;;;;;;3.07;87.31;103949.84;5049117;28;20507;-88
2022/01/12 12:15:10;;;;;;;33.77;13.00;;;;;;;3.10;87.44;103952.59;5047688;28;20125;-88
2022/01/12 12:17:37;;;;;;;28.93;12.27;;;;;;;3.07;87.22;103943.03;5047637;28;20182;-87
2022/01/12 12:20:09;;;;;;;32.00;12.80;;;;;;;3.08;87.05;103941.31;5049340;28;20037;-87
2022/01/12 12:22:39;;;;;;;34.70;13.13;;;;;;;3.08;86.78;103942.19;5028279;28;20044;-87
2022/01/12 12:25:09;;;;;;;30.47;12.33;;;;;;;3.10;86.53;103948.31;5049107;28;20036;-88
2022/01/12 12:27:38;;;;;;;32.80;12.33;;;;;;;3.13;86.77;103955.34;5047641;28;20033;-89
2022/01/12 12:30:06;;;;;;;30.87;12.17;;;;;;;3.11;86.99;103952.66;5046940;28;20045;-88
2022/01/12 12:32:37;;;;;;;34.50;11.97;;;;;;;3.10;86.65;103957.72;5044746;28;20484;-87
2022/01/12 12:35:12;;;;;;;32.25;12.77;;;;;;;3.09;86.91;103945.66;5028966;28;20036;-91
2022/01/12 12:37:44;;;;;;;33.03;11.97;;;;;;;3.09;86.56;103946.53;5030430;28;20031;-89
2022/01/12 12:40:20;;;;;;;29.63;11.93;;;;;;;3.11;86.43;103950.09;5048148;28;20059;-88